createdAt,value
2022-12-12T00:00:46.616Z,40.33
2022-12-12T00:06:09.294Z,34.20
2022-12-12T00:11:32.393Z,30.87
2022-12-12T00:16:54.862Z,31.10
2022-12-12T00:22:17.266Z,40.43
2022-12-12T00:27:39.748Z,31.30
2022-12-12T00:33:03.097Z,36.17
2022-12-12T00:38:25.608Z,28.47
2022-12-12T00:43:48.420Z,32.33
2022-12-12T00:49:10.838Z,33.07
2022-12-12T00:54:33.129Z,36.57
2022-12-12T00:59:55.370Z,33.47
2022-12-12T01:05:18.480Z,33.97
2022-12-12T01:10:41.623Z,36.80
2022-12-12T01:16:06.215Z,32.53
2022-12-12T01:21:28.572Z,35.43
2022-12-12T01:26:51.208Z,30.13
2022-12-12T01:32:13.356Z,31.10
2022-12-12T01:37:36.608Z,34.27
2022-12-12T01:42:59.705Z,33.73
2022-12-12T01:48:27.241Z,30.50
2022-12-12T01:53:54.369Z,30.83
2022-12-12T01:59:21.120Z,27.93
2022-12-12T02:04:43.716Z,29.40
2022-12-12T02:10:06.337Z,30.13
2022-12-12T02:15:42.241Z,23.90
2022-12-12T02:21:23.665Z,29.40
2022-12-12T02:27:25.839Z,29.90
2022-12-12T02:33:06.793Z,31.80
2022-12-12T02:38:47.891Z,29.47
2022-12-12T02:44:28.140Z,28.83
2022-12-12T02:49:57.146Z,24.97
2022-12-12T02:55:20.484Z,33.20
2022-12-12T03:01:15.026Z,26.90
2022-12-12T03:07:34.195Z,27.40
2022-12-12T03:13:08.877Z,27.90
2022-12-12T03:18:41.596Z,28.10
2022-12-12T03:24:12.827Z,26.03
2022-12-12T03:29:41.082Z,30.57
2022-12-12T03:35:19.943Z,37.23
2022-12-12T03:40:52.053Z,26.33
2022-12-12T03:46:19.792Z,34.37
2022-12-12T03:52:10.402Z,35.93
2022-12-12T03:57:39.848Z,24.77
2022-12-12T04:03:26.462Z,32.17
2022-12-12T04:09:08.549Z,22.73
2022-12-12T04:14:41.986Z,22.80
2022-12-12T04:20:32.565Z,21.10
2022-12-12T04:26:13.264Z,24.47
2022-12-12T04:31:41.018Z,27.93
2022-12-12T04:37:06.669Z,20.30
2022-12-12T04:42:34.302Z,22.00
2022-12-12T04:47:58.723Z,21.83
2022-12-12T04:53:29.641Z,22.43
2022-12-12T04:58:51.993Z,25.17
2022-12-12T05:04:46.397Z,18.03
2022-12-12T05:10:15.999Z,21.97
2022-12-12T05:15:41.827Z,20.10
2022-12-12T05:21:07.404Z,20.07
2022-12-12T05:26:32.977Z,13.73
2022-12-12T05:31:55.219Z,20.07
2022-12-12T05:37:17.287Z,15.37
2022-12-12T05:42:40.786Z,16.97
2022-12-12T05:48:03.010Z,16.73
2022-12-12T05:53:25.169Z,13.60
2022-12-12T05:58:47.447Z,15.80
2022-12-12T06:04:10.319Z,13.53
2022-12-12T06:09:32.588Z,13.87
2022-12-12T06:14:54.979Z,20.57
2022-12-12T06:20:18.271Z,11.23
2022-12-12T06:25:40.812Z,10.30
2022-12-12T06:31:09.680Z,9.50
2022-12-12T06:36:33.791Z,11.77
2022-12-12T06:41:56.245Z,11.23
2022-12-12T06:47:18.365Z,9.03
2022-12-12T06:52:40.681Z,9.77
2022-12-12T06:58:03.086Z,6.10
2022-12-12T07:03:25.300Z,7.13
2022-12-12T07:08:48.236Z,5.50
2022-12-12T07:14:11.104Z,5.30
2022-12-12T07:19:33.744Z,6.00
2022-12-12T07:24:56.368Z,6.53
2022-12-12T07:30:18.551Z,5.23
2022-12-12T07:35:41.814Z,6.27
2022-12-12T07:41:06.593Z,8.80
2022-12-12T07:46:28.928Z,6.57
2022-12-12T07:51:51.551Z,7.30
2022-12-12T07:57:14.108Z,8.80
2022-12-12T08:02:36.580Z,7.20
2022-12-12T08:07:58.974Z,30.33
2022-12-12T08:13:21.945Z,18.80
2022-12-12T08:18:44.788Z,6.40
2022-12-12T08:24:07.266Z,6.57
2022-12-12T08:29:29.573Z,7.10
2022-12-12T08:34:56.830Z,5.93
2022-12-12T08:40:19.067Z,5.93
2022-12-12T08:45:41.943Z,8.63
2022-12-12T08:51:04.414Z,6.63
2022-12-12T08:56:26.843Z,8.33
2022-12-12T09:01:49.689Z,8.77
2022-12-12T09:07:13.635Z,9.10
2022-12-12T09:12:41.474Z,6.80
2022-12-12T09:18:04.973Z,9.90
2022-12-12T09:23:28.581Z,7.77
2022-12-12T09:28:51.125Z,5.13
2022-12-12T09:34:14.443Z,8.63
2022-12-12T09:39:36.680Z,6.73
2022-12-12T09:45:02.604Z,97.63
2022-12-12T09:50:31.943Z,4.93
2022-12-12T09:56:12.914Z,8.73
2022-12-12T10:01:46.707Z,6.20
2022-12-12T10:07:19.456Z,5.77
2022-12-12T10:12:41.949Z,9.27
2022-12-12T10:18:10.014Z,4.60
2022-12-12T10:23:40.210Z,6.40
2022-12-12T10:29:16.526Z,9.70
2022-12-12T10:34:55.332Z,5.20
2022-12-12T10:40:33.081Z,5.87
2022-12-12T10:46:28.527Z,6.10
2022-12-12T10:51:52.245Z,7.47
2022-12-12T10:57:20.225Z,7.57
2022-12-12T11:02:44.356Z,7.13
2022-12-12T11:08:20.734Z,13.10
2022-12-12T11:13:47.171Z,6.63
2022-12-12T11:19:25.603Z,4.10
2022-12-12T11:24:50.328Z,7.93
2022-12-12T11:30:36.472Z,7.57
2022-12-12T11:35:59.669Z,8.23
2022-12-12T11:41:23.001Z,3.97
2022-12-12T11:46:45.514Z,4.00
2022-12-12T11:52:24.048Z,5.80
2022-12-12T11:58:01.928Z,3.97
2022-12-12T12:03:38.314Z,4.77
2022-12-12T12:09:32.604Z,6.43
2022-12-12T12:15:03.999Z,3.40
2022-12-12T12:21:13.838Z,4.30
2022-12-12T12:27:04.414Z,5.10
2022-12-12T12:32:32.408Z,4.50
2022-12-12T12:38:06.986Z,6.43
2022-12-12T12:43:41.053Z,5.17
2022-12-12T12:49:18.386Z,7.83
2022-12-12T12:54:45.735Z,6.67
2022-12-12T13:00:18.705Z,12.37
2022-12-12T13:05:50.568Z,14.97
2022-12-12T13:11:22.829Z,8.10
2022-12-12T13:16:46.001Z,12.73
2022-12-12T13:22:13.462Z,9.80
2022-12-12T13:27:46.158Z,17.33
2022-12-12T13:33:14.245Z,10.80
2022-12-12T13:38:37.720Z,6.33
2022-12-12T13:44:00.564Z,5.73
2022-12-12T13:49:47.210Z,6.00
2022-12-12T13:55:18.469Z,5.57
2022-12-12T14:00:41.842Z,7.23
2022-12-12T14:06:12.438Z,7.73
2022-12-12T14:11:37.542Z,3.23
2022-12-12T14:17:00.154Z,3.90
2022-12-12T14:22:49.688Z,3.73
2022-12-12T14:28:29.090Z,5.40
2022-12-12T14:34:07.501Z,3.63
2022-12-12T14:39:56.015Z,4.67
2022-12-12T14:45:25.411Z,5.73
2022-12-12T14:51:14.562Z,6.87
2022-12-12T14:56:47.678Z,4.17
2022-12-12T15:02:21.762Z,7.67
2022-12-12T15:07:44.465Z,8.07
2022-12-12T15:13:16.749Z,5.57
2022-12-12T15:18:39.090Z,14.23
2022-12-12T15:24:02.385Z,11.17
2022-12-12T15:29:29.817Z,9.17
2022-12-12T15:35:16.452Z,9.27
2022-12-12T15:40:39.822Z,8.60
2022-12-12T15:46:14.430Z,5.57
2022-12-12T15:51:37.412Z,8.87
2022-12-12T15:56:59.481Z,10.20
2022-12-12T16:02:26.422Z,17.08
